Time;durP1;ratioP1;P1;durP2;ratioP2;P2;SDS_P1;SDS_P2;PMS_P1;PMS_P2;Temp;Humidity;BMP_temperature;BMP_pressure;BME280_temperature;BME280_humidity;BME280_pressure;Samples;Min_cycle;Max_cycle;Signal;HPM_P1;HPM_P2
2022/04/11 00:02:23;;;;;;;32.80;10.75;;;;;;;;;;5118792;28;20023;-72
2022/04/11 00:04:49;;;;;;;30.33;8.75;;;;;;;;;;5118748;28;20019;-72
2022/04/11 00:07:15;;;;;;;29.05;11.25;;;;;;;;;;5118716;28;20019;-72
2022/04/11 00:09:43;;;;;;;43.03;13.90;;;;;;;;;;5118725;28;20118;-72
2022/04/11 00:12:09;;;;;;;43.53;13.93;;;;;;;;;;5118218;28;20462;-72
2022/04/11 00:14:36;;;;;;;44.35;11.38;;;;;;;;;;5118643;28;20023;-72
2022/04/11 00:17:02;;;;;;;36.72;12.55;;;;;;;;;;5118494;28;20432;-72
2022/04/11 00:19:28;;;;;;;48.72;10.63;;;;;;;;;;5118487;28;20314;-72
2022/04/11 00:21:54;;;;;;;42.00;11.20;;;;;;;;;;5118471;28;20030;-72
2022/04/11 00:24:20;;;;;;;32.58;10.27;;;;;;;;;;5117749;28;20396;-72
2022/04/11 00:26:46;;;;;;;21.88;8.35;;;;;;;;;;5118305;28;20023;-72
2022/04/11 00:29:12;;;;;;;37.88;10.70;;;;;;;;;;5117166;28;20332;-72
2022/04/11 00:31:38;;;;;;;36.33;12.27;;;;;;;;;;5117570;28;20080;-72
2022/04/11 00:34:04;;;;;;;39.67;12.80;;;;;;;;;;5118114;28;20020;-72
2022/04/11 00:36:30;;;;;;;31.42;9.88;;;;;;;;;;5118847;28;20038;-72
2022/04/11 00:38:56;;;;;;;38.42;10.57;;;;;;;;;;5118122;28;20047;-72
2022/04/11 00:41:22;;;;;;;35.13;11.93;;;;;;;;;;5118088;28;20024;-73
2022/04/11 00:43:48;;;;;;;35.60;11.18;;;;;;;;;;5118050;28;20079;-72
2022/04/11 00:46:14;;;;;;;28.08;9.18;;;;;;;;;;5117483;28;20020;-72
2022/04/11 00:48:40;;;;;;;35.17;10.40;;;;;;;;;;5117395;28;20020;-72
2022/04/11 00:51:09;;;;;;;33.30;11.38;;;;;;;;;;5117729;28;20298;-73
2022/04/11 00:53:37;;;;;;;46.97;12.82;;;;;;;;;;5117847;28;20030;-72
2022/04/11 00:56:03;;;;;;;41.92;13.05;;;;;;;;;;5117325;28;20011;-72
2022/04/11 00:58:29;;;;;;;33.00;12.65;;;;;;;;;;5117925;28;20026;-72
2022/04/11 01:00:56;;;;;;;33.70;11.68;;;;;;;;;;5117725;28;20015;-73
2022/04/11 01:03:22;;;;;;;37.15;10.63;;;;;;;;;;5116538;28;20024;-73
2022/04/11 01:05:48;;;;;;;33.10;11.77;;;;;;;;;;5117561;28;20314;-73
2022/04/11 01:08:14;;;;;;;32.22;12.65;;;;;;;;;;5118147;28;20370;-73
2022/04/11 01:10:40;;;;;;;40.50;12.55;;;;;;;;;;5116640;28;20049;-73
2022/04/11 01:13:06;;;;;;;30.67;10.07;;;;;;;;;;5117924;28;20019;-73
2022/04/11 01:15:32;;;;;;;51.63;24.83;;;;;;;;;;5116672;28;20425;-73
2022/04/11 01:17:58;;;;;;;47.05;18.02;;;;;;;;;;5117094;28;20027;-73
2022/04/11 01:20:24;;;;;;;33.88;13.60;;;;;;;;;;5116767;28;20018;-72
2022/04/11 01:22:50;;;;;;;49.15;16.00;;;;;;;;;;5116872;28;20027;-72
2022/04/11 01:25:17;;;;;;;42.58;12.35;;;;;;;;;;5116772;28;20023;-73
2022/04/11 01:27:43;;;;;;;45.80;12.07;;;;;;;;;;5116130;28;20059;-73
2022/04/11 01:30:10;;;;;;;33.90;10.10;;;;;;;;;;5115541;28;20051;-73
2022/04/11 01:32:39;;;;;;;35.85;11.40;;;;;;;;;;5115857;28;20027;-73
2022/04/11 01:35:17;;;;;;;51.50;15.13;;;;;;;;;;5118160;28;20019;-72
2022/04/11 01:37:43;;;;;;;47.58;13.07;;;;;;;;;;5119510;28;20102;-73
2022/04/11 01:40:10;;;;;;;34.70;11.65;;;;;;;;;;5120050;28;20109;-73
2022/04/11 01:42:36;;;;;;;36.95;10.65;;;;;;;;;;5120709;28;20054;-72
2022/04/11 01:45:03;;;;;;;30.23;11.50;;;;;;;;;;5118675;28;20425;-73
2022/04/11 01:47:29;;;;;;;43.20;11.23;;;;;;;;;;5119570;28;20027;-73
2022/04/11 01:49:55;;;;;;;45.47;11.85;;;;;;;;;;5120861;28;20061;-73
2022/04/11 01:52:23;;;;;;;28.63;11.55;;;;;;;;;;5119836;28;20024;-72
2022/04/11 01:54:49;;;;;;;46.63;11.80;;;;;;;;;;5120165;27;20030;-73
2022/04/11 01:57:15;;;;;;;40.20;11.20;;;;;;;;;;5119462;28;20023;-72
2022/04/11 01:59:41;;;;;;;40.22;12.48;;;;;;;;;;5120688;28;20070;-73
2022/04/11 02:02:07;;;;;;;58.60;18.52;;;;;;;;;;5120000;28;20332;-72
2022/04/11 02:04:33;;;;;;;45.70;16.13;;;;;;;;;;5119443;28;20027;-72
2022/04/11 02:06:59;;;;;;;46.08;13.85;;;;;;;;;;5119632;28;20023;-73
2022/04/11 02:09:25;;;;;;;62.85;18.13;;;;;;;;;;5119808;28;20023;-73
2022/04/11 02:11:51;;;;;;;50.97;16.17;;;;;;;;;;5119519;28;20034;-73
2022/04/11 02:14:17;;;;;;;48.35;16.88;;;;;;;;;;5120211;27;20038;-73
2022/04/11 02:16:43;;;;;;;65.82;15.27;;;;;;;;;;5120227;28;20028;-73
2022/04/11 02:19:10;;;;;;;43.92;14.57;;;;;;;;;;5120403;28;20459;-73
2022/04/11 02:21:36;;;;;;;38.40;11.65;;;;;;;;;;5120839;28;20038;-73
2022/04/11 02:24:02;;;;;;;40.58;10.85;;;;;;;;;;5119145;28;20015;-72
2022/04/11 02:26:28;;;;;;;34.03;9.40;;;;;;;;;;5121210;28;20077;-72
2022/04/11 02:28:54;;;;;;;30.77;8.88;;;;;;;;;;5118095;28;20031;-73
2022/04/11 02:31:20;;;;;;;52.00;10.32;;;;;;;;;;5119845;28;20035;-73
2022/04/11 02:33:46;;;;;;;41.63;8.68;;;;;;;;;;5118663;28;20087;-74
2022/04/11 02:36:14;;;;;;;29.80;7.15;;;;;;;;;;5117616;28;20078;-74
2022/04/11 02:38:40;;;;;;;34.92;8.48;;;;;;;;;;5120012;28;20019;-74
2022/04/11 02:41:07;;;;;;;42.13;8.35;;;;;;;;;;5118540;28;20024;-73
2022/04/11 02:43:33;;;;;;;34.78;8.50;;;;;;;;;;5100455;28;20027;-74
2022/04/11 02:45:59;;;;;;;40.28;9.68;;;;;;;;;;5117950;28;20023;-74
2022/04/11 02:48:25;;;;;;;39.20;9.65;;;;;;;;;;5100647;28;20034;-74
2022/04/11 02:50:52;;;;;;;36.30;8.98;;;;;;;;;;5117408;28;20015;-74
2022/04/11 02:53:18;;;;;;;35.88;9.25;;;;;;;;;;5115871;28;20024;-74
2022/04/11 02:55:44;;;;;;;52.72;8.57;;;;;;;;;;5116560;28;20011;-74
2022/04/11 02:58:12;;;;;;;53.95;10.75;;;;;;;;;;5117549;28;20031;-74
2022/04/11 03:00:38;;;;;;;40.03;9.23;;;;;;;;;;5117987;28;20020;-73
2022/04/11 03:03:04;;;;;;;45.05;9.00;;;;;;;;;;5117803;28;20340;-73
2022/04/11 03:05:30;;;;;;;34.70;10.00;;;;;;;;;;5118066;28;20102;-73
2022/04/11 03:07:56;;;;;;;29.70;9.05;;;;;;;;;;5118090;28;20024;-73
2022/04/11 03:10:22;;;;;;;42.55;9.68;;;;;;;;;;5116082;28;20035;-74
2022/04/11 03:12:48;;;;;;;39.80;10.00;;;;;;;;;;5090395;22;20492;-73
2022/04/11 03:15:14;;;;;;;47.28;9.15;;;;;;;;;;5075877;28;20056;-73
2022/04/11 03:17:40;;;;;;;30.95;9.75;;;;;;;;;;5075714;28;20024;-74
2022/04/11 03:20:07;;;;;;;41.33;8.15;;;;;;;;;;5075856;28;20024;-74
2022/04/11 03:22:33;;;;;;;33.33;6.82;;;;;;;;;;5076906;28;20035;-73
2022/04/11 03:24:59;;;;;;;41.55;9.05;;;;;;;;;;5077488;28;20055;-73
2022/04/11 03:27:26;;;;;;;41.10;7.72;;;;;;;;;;5042156;28;20136;-73
2022/04/11 03:29:52;;;;;;;24.77;6.70;;;;;;;;;;5078242;28;20024;-74
2022/04/11 03:32:19;;;;;;;37.67;6.45;;;;;;;;;;5061157;28;20056;-74
2022/04/11 03:34:45;;;;;;;36.90;7.47;;;;;;;;;;5078775;28;20021;-74
2022/04/11 03:37:12;;;;;;;41.78;8.82;;;;;;;;;;5078723;28;20024;-73
2022/04/11 03:39:38;;;;;;;33.20;7.78;;;;;;;;;;5060645;28;20012;-74
2022/04/11 03:42:11;;;;;;;25.60;6.13;;;;;;;;;;5045257;28;20021;-74
2022/04/11 03:44:42;;;;;;;42.03;9.00;;;;;;;;;;5060747;28;20031;-72
2022/04/11 03:47:09;;;;;;;46.53;12.27;;;;;;;;;;5043720;28;20032;-73
2022/04/11 03:49:35;;;;;;;31.85;8.82;;;;;;;;;;5043604;28;20107;-73
2022/04/11 03:52:05;;;;;;;36.75;8.45;;;;;;;;;;5060720;28;20043;-73
2022/04/11 03:54:35;;;;;;;36.83;7.75;;;;;;;;;;5059987;28;20028;-73
2022/04/11 03:57:02;;;;;;;37.58;10.55;;;;;;;;;;5061237;28;20028;-75
2022/04/11 03:59:34;;;;;;;55.13;10.05;;;;;;;;;;5061083;28;20020;-73
2022/04/11 04:02:05;;;;;;;34.20;7.15;;;;;;;;;;5047092;28;20456;-73
2022/04/11 04:04:33;;;;;;;26.50;6.32;;;;;;;;;;5079898;28;20047;-73
2022/04/11 04:07:02;;;;;;;45.72;7.63;;;;;;;;;;5067831;28;20020;-72
2022/04/11 04:09:30;;;;;;;40.08;8.23;;;;;;;;;;5082483;28;20410;-73
2022/04/11 04:11:58;;;;;;;38.73;9.13;;;;;;;;;;5047578;28;20048;-73
2022/04/11 04:14:26;;;;;;;37.33;8.70;;;;;;;;;;5081225;28;20020;-74
2022/04/11 04:16:53;;;;;;;31.30;7.90;;;;;;;;;;5044021;28;20046;-74
2022/04/11 04:19:25;;;;;;;35.58;7.88;;;;;;;;;;5059893;28;20055;-74
2022/04/11 04:21:52;;;;;;;39.30;8.10;;;;;;;;;;5041669;28;20528;-75
2022/04/11 04:24:22;;;;;;;39.13;9.43;;;;;;;;;;5076170;28;20476;-74
2022/04/11 04:26:48;;;;;;;;;;;;;;;;;;5060195;28;20035;-74
2022/04/11 04:29:17;;;;;;;38.33;8.82;;;;;;;;;;5075944;28;19905;-74
2022/04/11 04:31:44;;;;;;;42.70;10.48;;;;;;;;;;5077591;28;20390;-73
2022/04/11 04:34:10;;;;;;;32.60;8.50;;;;;;;;;;5059155;28;20188;-73
2022/04/11 04:36:36;;;;;;;33.90;9.65;;;;;;;;;;5074451;28;20020;-73
2022/04/11 04:39:03;;;;;;;36.25;9.23;;;;;;;;;;5074283;28;20054;-73
2022/04/11 04:41:29;;;;;;;34.45;8.68;;;;;;;;;;5074684;28;20040;-73
2022/04/11 04:43:58;;;;;;;49.28;10.05;;;;;;;;;;5038770;28;20023;-73
2022/04/11 04:46:28;;;;;;;45.05;10.20;;;;;;;;;;5056906;28;20418;-73
2022/04/11 04:48:57;;;;;;;78.82;21.17;;;;;;;;;;5041095;28;20036;-75
2022/04/11 04:51:24;;;;;;;43.33;8.53;;;;;;;;;;5073527;28;20059;-73
2022/04/11 04:53:51;;;;;;;33.33;8.27;;;;;;;;;;5073145;28;20021;-73
2022/04/11 04:56:18;;;;;;;47.80;11.43;;;;;;;;;;5040347;28;20028;-73
2022/04/11 04:58:48;;;;;;;62.20;15.00;;;;;;;;;;5053496;28;20417;-74
2022/04/11 05:01:15;;;;;;;54.20;15.00;;;;;;;;;;5055280;28;20039;-72
2022/04/11 05:03:41;;;;;;;72.15;22.23;;;;;;;;;;5059523;28;20272;-73
2022/04/11 05:06:08;;;;;;;59.20;13.02;;;;;;;;;;5058472;28;20472;-72
2022/04/11 05:08:35;;;;;;;66.25;13.45;;;;;;;;;;5040824;28;20020;-72
2022/04/11 05:11:01;;;;;;;103.47;24.52;;;;;;;;;;5058706;28;20040;-74
2022/04/11 05:13:29;;;;;;;67.80;17.75;;;;;;;;;;5059506;28;20127;-74
2022/04/11 05:15:57;;;;;;;58.70;12.15;;;;;;;;;;5042926;28;20052;-73
2022/04/11 05:18:24;;;;;;;57.33;11.60;;;;;;;;;;5078068;28;20031;-74
2022/04/11 05:20:51;;;;;;;54.80;11.18;;;;;;;;;;5059685;28;20098;-75
2022/04/11 05:23:20;;;;;;;70.80;15.85;;;;;;;;;;5059095;28;20365;-74
2022/04/11 05:25:46;;;;;;;54.45;9.05;;;;;;;;;;5076230;28;20024;-74
2022/04/11 05:28:12;;;;;;;62.15;10.68;;;;;;;;;;5058900;28;20167;-73
2022/04/11 05:30:38;;;;;;;47.65;10.75;;;;;;;;;;5075661;28;20066;-74
2022/04/11 05:33:07;;;;;;;46.15;11.88;;;;;;;;;;5041372;28;20028;-74
2022/04/11 05:35:35;;;;;;;45.85;11.93;;;;;;;;;;5058172;28;20016;-73
2022/04/11 05:38:01;;;;;;;45.88;11.05;;;;;;;;;;5076434;28;20422;-73
2022/04/11 05:40:28;;;;;;;43.15;10.27;;;;;;;;;;5075860;28;20028;-74
2022/04/11 05:42:54;;;;;;;75.80;14.77;;;;;;;;;;5057803;28;20484;-74
2022/04/11 05:45:21;;;;;;;44.95;11.23;;;;;;;;;;5074304;28;20024;-72
2022/04/11 05:47:48;;;;;;;46.22;8.13;;;;;;;;;;5040791;28;20024;-74
2022/04/11 05:50:15;;;;;;;61.28;11.90;;;;;;;;;;5056654;28;20044;-73
2022/04/11 05:52:41;;;;;;;35.92;9.32;;;;;;;;;;5057644;28;20029;-72
2022/04/11 05:55:07;;;;;;;45.88;10.88;;;;;;;;;;5075282;28;20051;-74
2022/04/11 05:57:34;;;;;;;42.70;8.95;;;;;;;;;;5038868;28;20031;-74
2022/04/11 06:00:00;;;;;;;43.70;9.75;;;;;;;;;;5072823;28;20425;-74
2022/04/11 06:02:26;;;;;;;35.10;8.60;;;;;;;;;;5073377;28;20031;-74
2022/04/11 06:04:52;;;;;;;36.33;10.43;;;;;;;;;;5073109;28;20017;-73
2022/04/11 06:07:20;;;;;;;38.15;7.82;;;;;;;;;;5075295;28;20109;-73
2022/04/11 06:09:47;;;;;;;45.10;9.93;;;;;;;;;;5074657;28;20277;-74
2022/04/11 06:12:14;;;;;;;43.22;8.63;;;;;;;;;;5055731;28;20134;-73
2022/04/11 06:14:41;;;;;;;37.15;9.75;;;;;;;;;;5039913;28;20031;-74
2022/04/11 06:17:08;;;;;;;29.63;6.70;;;;;;;;;;5040313;28;20021;-75
2022/04/11 06:19:34;;;;;;;32.63;7.00;;;;;;;;;;5041289;28;20016;-73
2022/04/11 06:22:01;;;;;;;40.45;7.20;;;;;;;;;;5042766;28;20324;-74
2022/04/11 06:24:27;;;;;;;37.92;11.10;;;;;;;;;;5061042;28;20032;-74
2022/04/11 06:26:53;;;;;;;44.30;8.65;;;;;;;;;;5044867;28;20104;-73
2022/04/11 06:29:20;;;;;;;36.28;9.35;;;;;;;;;;5040076;28;20036;-72
2022/04/11 06:31:47;;;;;;;31.38;7.63;;;;;;;;;;5080545;28;20032;-75
2022/04/11 06:34:13;;;;;;;32.40;7.22;;;;;;;;;;5044100;28;20020;-73
2022/04/11 06:36:40;;;;;;;38.00;8.48;;;;;;;;;;5079146;28;20020;-73
2022/04/11 06:39:06;;;;;;;47.13;9.43;;;;;;;;;;5078906;28;20017;-73
2022/04/11 06:41:32;;;;;;;31.70;7.28;;;;;;;;;;5060590;28;20032;-72
2022/04/11 06:43:58;;;;;;;31.75;8.48;;;;;;;;;;5059731;28;20020;-73
2022/04/11 06:46:24;;;;;;;41.13;6.50;;;;;;;;;;5078538;28;20024;-73
2022/04/11 06:48:51;;;;;;;28.55;6.32;;;;;;;;;;5060404;28;20415;-74
2022/04/11 06:51:17;;;;;;;36.75;9.57;;;;;;;;;;5060750;28;20433;-73
2022/04/11 07:40:14;;;;;;;39.17;13.88;;;;;;;;;;6165091;22;20008;-73
2022/04/11 07:42:41;;;;;;;27.40;7.25;;;;;;;;;;5095674;28;20035;-76
2022/04/11 07:45:07;;;;;;;31.42;9.65;;;;;;;;;;5113382;28;20045;-73
2022/04/11 07:47:33;;;;;;;38.53;8.95;;;;;;;;;;5096579;28;20023;-73
2022/04/11 07:49:59;;;;;;;31.23;9.65;;;;;;;;;;5078852;28;20391;-74
2022/04/11 07:52:26;;;;;;;41.03;12.93;;;;;;;;;;5113138;28;20435;-74
2022/04/11 07:54:53;;;;;;;46.42;16.30;;;;;;;;;;5097082;28;20043;-73
2022/04/11 07:57:19;;;;;;;44.47;16.95;;;;;;;;;;5096917;28;20051;-72
2022/04/11 07:59:45;;;;;;;30.95;10.98;;;;;;;;;;5098059;28;20028;-74
2022/04/11 08:02:14;;;;;;;48.57;19.10;;;;;;;;;;5094413;28;20104;-74
2022/04/11 08:04:41;;;;;;;44.17;15.10;;;;;;;;;;5096910;28;20020;-72
2022/04/11 08:07:07;;;;;;;25.30;7.20;;;;;;;;;;5096425;28;20064;-72
2022/04/11 08:09:33;;;;;;;25.95;8.05;;;;;;;;;;5096897;28;20329;-72
2022/04/11 08:11:59;;;;;;;27.08;5.90;;;;;;;;;;5097335;28;20032;-73
2022/04/11 08:14:25;;;;;;;35.95;9.07;;;;;;;;;;5097181;28;20015;-72
2022/04/11 08:16:51;;;;;;;30.63;7.95;;;;;;;;;;5096896;28;20111;-73
2022/04/11 08:19:18;;;;;;;43.00;8.32;;;;;;;;;;5097282;28;20026;-73
2022/04/11 08:21:44;;;;;;;36.65;10.80;;;;;;;;;;5096960;28;20032;-73
2022/04/11 08:24:10;;;;;;;27.58;7.57;;;;;;;;;;5077938;28;20031;-73
2022/04/11 08:26:36;;;;;;;28.23;8.55;;;;;;;;;;5096603;28;20336;-74
2022/04/11 08:29:02;;;;;;;33.17;6.65;;;;;;;;;;5096046;28;20073;-74
2022/04/11 08:31:28;;;;;;;32.35;7.75;;;;;;;;;;5095722;28;20024;-73
2022/04/11 08:33:54;;;;;;;34.90;6.28;;;;;;;;;;5095712;28;20367;-73
2022/04/11 08:36:20;;;;;;;55.95;6.95;;;;;;;;;;5096614;28;20015;-73
2022/04/11 08:38:46;;;;;;;24.75;5.50;;;;;;;;;;5095703;28;20051;-73
2022/04/11 08:41:16;;;;;;;28.20;7.25;;;;;;;;;;5095964;28;20306;-73
2022/04/11 08:43:42;;;;;;;21.80;5.00;;;;;;;;;;5096953;28;20028;-74
2022/04/11 08:46:08;;;;;;;26.95;7.13;;;;;;;;;;5096917;28;20069;-73
2022/04/11 08:53:43;;;;;;;37.92;6.28;;;;;;;;;;5054652;28;20128;-72
2022/04/11 08:56:09;;;;;;;39.00;8.65;;;;;;;;;;5056052;28;20033;-73
2022/04/11 08:58:35;;;;;;;27.98;5.85;;;;;;;;;;5055610;28;20166;-72
2022/04/11 09:01:01;;;;;;;30.80;6.82;;;;;;;;;;5055838;28;20032;-72
2022/04/11 09:03:28;;;;;;;48.30;8.15;;;;;;;;;;5055668;28;20020;-72
2022/04/11 09:06:08;;;;;;;34.45;7.65;;;;;;;;;;5054496;28;20109;-73
2022/04/11 09:08:38;;;;;;;25.02;6.15;;;;;;;;;;5056571;28;20028;-74
2022/04/11 09:11:04;;;;;;;31.92;6.60;;;;;;;;;;5056383;28;20021;-74
2022/04/11 09:13:45;;;;;;;25.63;6.75;;;;;;;;;;5056446;28;20032;-74
2022/04/11 09:16:11;;;;;;;25.75;5.53;;;;;;;;;;5055446;28;20103;-74
2022/04/11 09:18:50;;;;;;;29.08;6.05;;;;;;;;;;5055852;28;20104;-73
2022/04/11 09:21:17;;;;;;;31.90;5.78;;;;;;;;;;5054738;28;20017;-74
2022/04/11 09:23:43;;;;;;;25.83;6.05;;;;;;;;;;5055777;28;20017;-74
2022/04/11 09:26:20;;;;;;;32.90;5.88;;;;;;;;;;5056536;28;20035;-74
2022/04/11 09:28:59;;;;;;;23.63;5.90;;;;;;;;;;5055784;28;20094;-74
2022/04/11 09:31:26;;;;;;;28.38;6.55;;;;;;;;;;5055987;28;20024;-74
2022/04/11 09:33:52;;;;;;;24.45;5.93;;;;;;;;;;5056236;28;20051;-74
2022/04/11 09:36:20;;;;;;;25.33;5.75;;;;;;;;;;5055901;28;20021;-75
2022/04/11 09:38:58;;;;;;;28.98;6.40;;;;;;;;;;5055473;28;20021;-74
2022/04/11 09:41:28;;;;;;;25.88;5.13;;;;;;;;;;5056018;28;20013;-75
2022/04/11 09:43:54;;;;;;;22.98;8.10;;;;;;;;;;5056576;28;20114;-74
2022/04/11 09:46:20;;;;;;;34.60;5.38;;;;;;;;;;5056141;28;20053;-74
2022/04/11 09:48:46;;;;;;;26.27;6.03;;;;;;;;;;5054699;28;20038;-73
2022/04/11 09:51:13;;;;;;;24.70;6.53;;;;;;;;;;5055439;28;20025;-73
2022/04/11 09:53:39;;;;;;;35.95;7.45;;;;;;;;;;5056363;28;20434;-74
2022/04/11 09:56:06;;;;;;;23.35;7.38;;;;;;;;;;5056898;28;20112;-74
2022/04/11 09:58:33;;;;;;;36.17;8.38;;;;;;;;;;5042407;28;20107;-74
2022/04/11 10:01:01;;;;;;;29.50;8.80;;;;;;;;;;5060034;28;20035;-74
2022/04/11 10:03:27;;;;;;;23.98;6.38;;;;;;;;;;5059817;28;20025;-74
2022/04/11 10:05:54;;;;;;;37.50;6.60;;;;;;;;;;5060232;28;20037;-74
2022/04/11 10:08:22;;;;;;;24.88;5.80;;;;;;;;;;5060309;28;20028;-74
2022/04/11 10:10:48;;;;;;;19.95;6.25;;;;;;;;;;5058834;28;20150;-74
2022/04/11 10:13:15;;;;;;;33.28;6.97;;;;;;;;;;5058812;28;20058;-74
2022/04/11 10:15:43;;;;;;;31.85;7.25;;;;;;;;;;5060147;28;20025;-74
2022/04/11 10:18:10;;;;;;;22.63;4.80;;;;;;;;;;5058869;28;20421;-74
2022/04/11 10:20:40;;;;;;;31.35;6.28;;;;;;;;;;5060082;28;20098;-74
2022/04/11 10:23:06;;;;;;;;;;;;;;;;;;5060462;28;20020;-74
2022/04/11 10:25:37;;;;;;;18.05;5.75;;;;;;;;;;5059876;28;19928;-74
2022/04/11 10:28:16;;;;;;;19.52;6.38;;;;;;;;;;5058041;28;20045;-74
2022/04/11 10:30:42;;;;;;;24.58;6.43;;;;;;;;;;5058211;28;20035;-74
2022/04/11 10:33:08;;;;;;;17.95;5.80;;;;;;;;;;5059665;28;20504;-74
2022/04/11 10:35:41;;;;;;;22.77;5.63;;;;;;;;;;5059248;28;20021;-74
2022/04/11 10:38:08;;;;;;;24.13;7.15;;;;;;;;;;5059823;28;20028;-74
2022/04/11 10:40:38;;;;;;;39.45;6.88;;;;;;;;;;5059698;28;20099;-74
2022/04/11 10:43:05;;;;;;;43.58;9.60;;;;;;;;;;5058601;28;20056;-74
2022/04/11 10:45:33;;;;;;;45.90;7.30;;;;;;;;;;5041765;28;20025;-74
2022/04/11 10:47:59;;;;;;;30.73;7.03;;;;;;;;;;5058435;28;20024;-74
2022/04/11 10:50:26;;;;;;;30.65;7.70;;;;;;;;;;5041696;28;20020;-74
2022/04/11 10:52:56;;;;;;;33.35;7.05;;;;;;;;;;5041701;28;20044;-73
2022/04/11 10:55:23;;;;;;;34.58;9.05;;;;;;;;;;5057700;28;20544;-74
2022/04/11 10:57:56;;;;;;;31.80;8.00;;;;;;;;;;5058104;28;20060;-74
2022/04/11 11:00:32;;;;;;;45.10;9.80;;;;;;;;;;5058133;28;20021;-73
2022/04/11 11:03:01;;;;;;;17.48;6.07;;;;;;;;;;5059015;28;20040;-74
2022/04/11 11:05:41;;;;;;;42.50;7.47;;;;;;;;;;5059233;28;20020;-74
2022/04/11 11:08:09;;;;;;;22.83;7.03;;;;;;;;;;5056947;28;20021;-74
2022/04/11 11:10:44;;;;;;;28.20;5.47;;;;;;;;;;5058691;28;20623;-74
2022/04/11 11:13:23;;;;;;;26.48;7.15;;;;;;;;;;5057737;28;20033;-74
2022/04/11 11:15:49;;;;;;;49.15;8.13;;;;;;;;;;5058710;28;20334;-74
2022/04/11 11:18:15;;;;;;;33.22;6.78;;;;;;;;;;5058428;28;20032;-74
2022/04/11 11:21:10;;;;;;;29.20;6.22;;;;;;;;;;5074461;28;20024;-74
2022/04/11 11:23:36;;;;;;;33.05;6.10;;;;;;;;;;5046179;28;20135;-74
2022/04/11 11:26:12;;;;;;;22.70;6.20;;;;;;;;;;5059088;28;20053;-74
2022/04/11 11:28:42;;;;;;;33.97;6.68;;;;;;;;;;5057215;28;20024;-73
2022/04/11 11:31:08;;;;;;;31.73;6.17;;;;;;;;;;5058941;28;20433;-73
2022/04/11 11:33:34;;;;;;;25.65;6.40;;;;;;;;;;5058356;28;20718;-74
2022/04/11 11:36:02;;;;;;;34.03;8.82;;;;;;;;;;5058724;28;20024;-73
2022/04/11 11:38:29;;;;;;;42.78;9.20;;;;;;;;;;5057326;28;20036;-74
2022/04/11 11:40:56;;;;;;;45.05;11.13;;;;;;;;;;5058619;28;20021;-74
2022/04/11 11:43:23;;;;;;;24.42;7.35;;;;;;;;;;5056901;28;20152;-73
2022/04/11 11:45:50;;;;;;;27.38;6.20;;;;;;;;;;5057988;28;20017;-73
2022/04/11 11:48:23;;;;;;;38.20;7.32;;;;;;;;;;5058391;28;20028;-74
2022/04/11 11:50:50;;;;;;;32.67;7.00;;;;;;;;;;5057094;28;20017;-74
2022/04/11 11:53:17;;;;;;;26.25;8.10;;;;;;;;;;5057281;28;20037;-74
2022/04/11 11:55:56;;;;;;;43.38;7.68;;;;;;;;;;5058293;28;20032;-73
2022/04/11 11:58:22;;;;;;;32.72;7.47;;;;;;;;;;5057781;28;20027;-73
2022/04/11 12:00:49;;;;;;;28.75;7.35;;;;;;;;;;5040418;28;20041;-73
2022/04/11 12:06:01;;;;;;;18.45;6.47;;;;;;;;;;5057775;28;20044;-74
2022/04/11 12:08:30;;;;;;;38.88;6.28;;;;;;;;;;5056904;28;20098;-73
2022/04/11 12:10:59;;;;;;;29.38;6.65;;;;;;;;;;5057814;28;20021;-73
2022/04/11 12:13:27;;;;;;;24.25;5.93;;;;;;;;;;5056198;28;20033;-74
2022/04/11 12:16:08;;;;;;;25.70;7.55;;;;;;;;;;5057805;28;20056;-74
2022/04/11 12:19:06;;;;;;;38.50;7.25;;;;;;;;;;5057342;28;20020;-73
2022/04/11 12:21:40;;;;;;;41.05;7.90;;;;;;;;;;5024041;28;20434;-73
2022/04/11 12:24:09;;;;;;;26.17;7.35;;;;;;;;;;5057833;28;20044;-74
2022/04/11 12:26:39;;;;;;;21.35;5.90;;;;;;;;;;5057199;28;20103;-74
2022/04/11 12:29:05;;;;;;;;;;;;;;;;;;5057706;28;20358;-74
2022/04/11 12:31:31;;;;;;;38.92;6.93;;;;;;;;;;5056420;28;19904;-74
2022/04/11 12:34:08;;;;;;;38.70;6.88;;;;;;;;;;5057561;28;20048;-73
2022/04/11 12:36:34;;;;;;;28.40;7.78;;;;;;;;;;5057634;28;20108;-73
2022/04/11 12:39:00;;;;;;;36.22;7.72;;;;;;;;;;5057538;28;20029;-73
2022/04/11 12:41:33;;;;;;;34.15;8.52;;;;;;;;;;5057497;28;20020;-73
2022/04/11 12:43:59;;;;;;;38.50;9.45;;;;;;;;;;5057521;28;20044;-74
2022/04/11 12:46:25;;;;;;;32.42;8.80;;;;;;;;;;5057947;28;20325;-74
2022/04/11 12:48:57;;;;;;;36.78;8.55;;;;;;;;;;5057065;28;20418;-73
2022/04/11 12:51:25;;;;;;;28.42;9.48;;;;;;;;;;5057553;28;20055;-74
2022/04/11 12:53:51;;;;;;;44.90;14.10;;;;;;;;;;5057978;28;20036;-74
2022/04/11 12:56:17;;;;;;;46.15;14.80;;;;;;;;;;5055774;28;20020;-73
2022/04/11 12:58:43;;;;;;;36.92;10.48;;;;;;;;;;5056375;28;20017;-73
2022/04/11 13:01:09;;;;;;;27.33;9.50;;;;;;;;;;5057193;28;20027;-73
2022/04/11 13:03:35;;;;;;;46.63;11.05;;;;;;;;;;5057186;28;20024;-73
2022/04/11 13:06:03;;;;;;;35.63;10.55;;;;;;;;;;5056253;28;20406;-73
2022/04/11 13:08:30;;;;;;;55.15;12.20;;;;;;;;;;5057187;28;20027;-73
2022/04/11 13:10:58;;;;;;;51.28;15.18;;;;;;;;;;5057247;28;20108;-73
2022/04/11 13:13:25;;;;;;;44.72;14.82;;;;;;;;;;5056818;28;20064;-73
2022/04/11 13:18:36;;;;;;;51.90;14.63;;;;;;;;;;5055722;28;20021;-73
2022/04/11 13:21:02;;;;;;;47.53;15.10;;;;;;;;;;5057498;28;20013;-74
2022/04/11 13:23:28;;;;;;;44.20;11.98;;;;;;;;;;5056450;28;20108;-74
2022/04/11 13:25:54;;;;;;;46.55;14.60;;;;;;;;;;5056902;28;20108;-73
2022/04/11 13:28:20;;;;;;;37.63;10.57;;;;;;;;;;5055773;28;20048;-73
2022/04/11 13:30:46;;;;;;;51.55;15.38;;;;;;;;;;5058515;28;20074;-74
2022/04/11 13:33:12;;;;;;;42.42;12.90;;;;;;;;;;5059796;28;20029;-74
2022/04/11 13:35:38;;;;;;;35.33;12.15;;;;;;;;;;5061006;28;20020;-74
2022/04/11 13:38:04;;;;;;;49.05;13.75;;;;;;;;;;5060579;28;20497;-74
2022/04/11 13:40:30;;;;;;;41.38;13.60;;;;;;;;;;5059766;28;20021;-74
2022/04/11 13:42:58;;;;;;;40.67;12.73;;;;;;;;;;5060895;28;20311;-74
2022/04/11 13:45:24;;;;;;;42.47;12.70;;;;;;;;;;5060311;28;20013;-74
2022/04/11 13:47:49;;;;;;;30.73;11.90;;;;;;;;;;5059588;28;20097;-74
2022/04/11 13:50:15;;;;;;;36.70;13.75;;;;;;;;;;5059688;28;20017;-74
2022/04/11 13:52:41;;;;;;;46.85;14.32;;;;;;;;;;5060565;28;20120;-74
2022/04/11 13:55:07;;;;;;;39.83;14.82;;;;;;;;;;5060658;28;20021;-74
2022/04/11 13:57:33;;;;;;;40.03;16.02;;;;;;;;;;5059259;28;20025;-74
2022/04/11 13:59:59;;;;;;;52.35;17.23;;;;;;;;;;5060044;28;20021;-74
2022/04/11 14:02:25;;;;;;;50.53;18.45;;;;;;;;;;5060520;28;20029;-74
2022/04/11 14:04:51;;;;;;;50.28;20.23;;;;;;;;;;5060675;28;20017;-74
2022/04/11 14:07:17;;;;;;;63.08;17.83;;;;;;;;;;5060450;28;20108;-74
2022/04/11 14:09:43;;;;;;;57.03;20.63;;;;;;;;;;5059294;28;20113;-74
2022/04/11 14:12:09;;;;;;;62.55;24.83;;;;;;;;;;5059739;28;20121;-74
2022/04/11 14:14:35;;;;;;;76.07;29.38;;;;;;;;;;5058493;28;20526;-74
2022/04/11 14:17:01;;;;;;;72.15;28.77;;;;;;;;;;5060252;28;20098;-74
2022/04/11 14:19:27;;;;;;;70.60;30.58;;;;;;;;;;5060171;28;20411;-74
2022/04/11 14:21:54;;;;;;;94.85;37.05;;;;;;;;;;5059867;28;20090;-74
2022/04/11 14:24:20;;;;;;;80.07;31.75;;;;;;;;;;5058845;28;20115;-74
2022/04/11 14:26:47;;;;;;;68.22;28.27;;;;;;;;;;5060045;28;20109;-74
2022/04/11 14:29:13;;;;;;;70.88;27.90;;;;;;;;;;5058980;28;20338;-74
2022/04/11 14:31:39;;;;;;;61.50;24.30;;;;;;;;;;5058573;28;20025;-74
2022/04/11 14:34:05;;;;;;;55.75;23.55;;;;;;;;;;5058283;28;20028;-74
2022/04/11 14:36:32;;;;;;;52.80;21.95;;;;;;;;;;5059944;28;20331;-74
2022/04/11 14:38:59;;;;;;;79.00;23.98;;;;;;;;;;5059962;28;20024;-74
2022/04/11 14:41:25;;;;;;;52.97;21.25;;;;;;;;;;5059430;28;20017;-74
2022/04/11 14:43:51;;;;;;;79.82;35.55;;;;;;;;;;5059292;28;20021;-74
2022/04/11 14:46:16;;;;;;;85.55;36.35;;;;;;;;;;5059694;28;20017;-74
2022/04/11 14:48:44;;;;;;;68.22;27.25;;;;;;;;;;5059598;28;20398;-74
2022/04/11 14:51:11;;;;;;;56.92;26.85;;;;;;;;;;5057944;28;20319;-74
2022/04/11 14:53:37;;;;;;;57.60;23.75;;;;;;;;;;5060166;28;20409;-74
2022/04/11 14:56:04;;;;;;;43.00;20.45;;;;;;;;;;5058556;28;20031;-73
2022/04/11 14:58:30;;;;;;;45.13;21.77;;;;;;;;;;5059490;28;20021;-73
2022/04/11 15:00:56;;;;;;;51.25;22.15;;;;;;;;;;5059509;28;20020;-73
2022/04/11 15:03:22;;;;;;;51.60;22.35;;;;;;;;;;5058856;28;20104;-73
2022/04/11 15:05:48;;;;;;;53.67;21.63;;;;;;;;;;5059355;28;20025;-73
2022/04/11 15:08:14;;;;;;;39.15;18.00;;;;;;;;;;5057559;28;20017;-73
2022/04/11 15:10:40;;;;;;;55.95;20.52;;;;;;;;;;5058751;28;20430;-73
2022/04/11 15:13:06;;;;;;;40.17;19.92;;;;;;;;;;5059158;28;20115;-73
2022/04/11 15:15:35;;;;;;;54.08;20.30;;;;;;;;;;5058615;28;20025;-73
2022/04/11 15:18:01;;;;;;;44.00;18.52;;;;;;;;;;5059176;28;20025;-73
2022/04/11 15:20:27;;;;;;;38.50;18.60;;;;;;;;;;5058829;28;20147;-73
2022/04/11 15:22:53;;;;;;;46.78;18.48;;;;;;;;;;5059093;28;20013;-73
2022/04/11 15:25:19;;;;;;;60.13;21.95;;;;;;;;;;5041132;28;20052;-73